Terminal Aerodrome Forecast
Issued by NWS

Home | Current Version | Previous Version | Text Only | Print | Product List | Glossary On
Versions: 1 2 3 4 5 6 7 8 9 10 11 12
000
FTUS43 KOAX 040540
TAFCDR
TAF
KCDR 040540Z 0406/0506 08008KT P6SM BKN150
     FM040900 10010KT P6SM OVC080
     FM050300 11007KT 4SM BR OVC015=

USA.gov is the U.S. government's official web portal to all federal, state and local government web resources and services.